Girona-Costa Brava Airport

Airport
ICAO code: 
LEGE
IATA Code: 
GRO
Summary
ICAO Region: 
EUR
Territory: 
Location: 
Vilobí d'Onyar, Catalonia
Serving: 
Girona
Elevation: 
468 ft
Coordinates: 
Aerial View: 
41° 54' 14.326" N, 2° 45' 41.975" E
Metar
Observation
LEGE 221500Z 00000KT CAVOK 13/M02 Q1028
Station
Gerona / Costa Brava
Date/Time
2022-01-22 15:00:00
Wind direction
Wind speed
00 kts
Lowest cloud amount
clouds and visibility OK
Temperature
13°C
Dew point
-2°C
Humidity
35%
QNH
1028 hPa
Weather condition
n/a

Girona-Costa Brava Airport is an airport located 12.5 km southwest of the city of Girona, next to the small village of Vilobí d'Onyar, in the north-east of Catalonia, Spain. It is well connected to the Costa Brava, Barcelona and the Pyrenees.

Climatology

Humid “subtropical”/Mediterranean climate (Köppen climate classification Cfa/Csa) - characterized by hot, humid summers and cool winters. Significant amounts of precipitation occur in all seasons in most areas. Winter rainfall (and sometimes snowfall) is associated with large storms that the westerlies steer from west to east. Most summer rainfall occurs during thunderstorms. Cold winds from the Pyrenees in the winter can cause temperatures as low as -5C.

Runways

Designator Length Width Surface Rops
2/20 2400 45 ASP Yes/Yes
Airport map: 
Aerial View: 

Accidents and Serious Incidents at or in the vicinity of LEGE

SKYbrary Partners:

Safety knowledge contributed by: